createdAt,value
2022-10-26T00:00:08.893Z,1010.3
2022-10-26T00:01:09.085Z,1010.5
2022-10-26T00:02:09.196Z,1010.3
2022-10-26T00:03:08.918Z,1010.3
2022-10-26T00:04:08.933Z,1010.4
2022-10-26T00:05:08.935Z,1010.3
2022-10-26T00:06:08.956Z,1010.3
2022-10-26T00:07:08.955Z,1010.4
2022-10-26T00:08:08.956Z,1010.3
2022-10-26T00:09:08.966Z,1010.4
2022-10-26T00:10:08.976Z,1010.4
2022-10-26T00:11:08.994Z,1010.3
2022-10-26T00:12:08.997Z,1010.3
2022-10-26T00:13:09.033Z,1010.3
2022-10-26T00:14:09.022Z,1010.3
2022-10-26T00:15:09.035Z,1010.3
2022-10-26T00:16:09.053Z,1010.3
2022-10-26T00:17:09.073Z,1010.3
2022-10-26T00:18:09.069Z,1010.4
2022-10-26T00:19:09.084Z,1010.4
2022-10-26T00:20:09.092Z,1010.4
2022-10-26T00:21:09.104Z,1010.4
2022-10-26T00:22:09.106Z,1010.4
2022-10-26T00:23:09.119Z,1010.4
2022-10-26T00:24:09.220Z,1010.4
2022-10-26T00:25:09.145Z,1010.4
2022-10-26T00:26:09.146Z,1010.4
2022-10-26T00:27:09.155Z,1010.5
2022-10-26T00:28:09.176Z,1010.5
2022-10-26T00:29:09.185Z,1010.4
2022-10-26T00:30:09.192Z,1010.4
2022-10-26T00:31:09.194Z,1010.4
2022-10-26T00:32:09.209Z,1010.4
2022-10-26T00:33:09.210Z,1010.5
2022-10-26T00:34:09.223Z,1010.5
2022-10-26T00:35:24.275Z,1010.4
2022-10-26T00:36:09.251Z,1010.5
2022-10-26T00:37:09.261Z,1010.5
2022-10-26T00:38:09.268Z,1010.5
2022-10-26T00:39:09.281Z,1010.4
2022-10-26T00:40:09.294Z,1010.5
2022-10-26T00:41:09.307Z,1010.5
2022-10-26T00:42:09.319Z,1010.5
2022-10-26T00:43:09.333Z,1010.4
2022-10-26T01:01:09.994Z,1010.5
2022-10-26T01:02:09.544Z,1010.4
2022-10-26T01:03:09.551Z,1010.4
2022-10-26T01:04:09.677Z,1010.5
2022-10-26T01:05:09.572Z,1010.4
2022-10-26T01:06:09.587Z,1010.3
2022-10-26T01:07:09.676Z,1010.4
2022-10-26T01:08:09.628Z,1010.3
2022-10-26T01:09:09.621Z,1010.4
2022-10-26T01:10:09.633Z,1010.3
2022-10-26T01:11:09.642Z,1010.4
2022-10-26T01:12:09.652Z,1010.3
2022-10-26T01:13:09.658Z,1010.5
2022-10-26T01:14:09.660Z,1010.4
2022-10-26T01:15:09.679Z,1010.3
2022-10-26T01:16:09.695Z,1010.3
2022-10-26T01:17:09.705Z,1010.3
2022-10-26T01:18:09.709Z,1010.3
2022-10-26T01:19:09.726Z,1010.3
2022-10-26T01:20:09.728Z,1010.4
2022-10-26T01:21:09.743Z,1010.4
2022-10-26T01:22:09.757Z,1010.4
2022-10-26T01:23:09.769Z,1010.4
2022-10-26T01:24:09.778Z,1010.5
2022-10-26T01:25:09.791Z,1010.5
2022-10-26T01:26:09.796Z,1010.4
2022-10-26T01:27:09.820Z,1010.3
2022-10-26T01:28:09.831Z,1010.5
2022-10-26T01:29:09.837Z,1010.4
2022-10-26T01:30:09.855Z,1010.4
2022-10-26T01:31:09.861Z,1010.4
2022-10-26T01:32:09.870Z,1010.4
2022-10-26T01:33:09.886Z,1010.3
2022-10-26T01:34:09.891Z,1010.4
2022-10-26T01:35:09.909Z,1010.3
2022-10-26T01:36:09.927Z,1010.3
2022-10-26T01:37:09.934Z,1010.3
2022-10-26T01:38:09.937Z,1010.3
2022-10-26T01:39:09.954Z,1010.3
2022-10-26T01:40:09.961Z,1010.2
2022-10-26T01:41:09.976Z,1010.2
2022-10-26T01:42:09.992Z,1010.3
2022-10-26T01:43:09.995Z,1010.3
2022-10-26T01:44:10.014Z,1010.3
2022-10-26T01:45:10.022Z,1010.3
2022-10-26T01:46:10.207Z,1010.3
2022-10-26T01:47:10.039Z,1010.2
2022-10-26T01:48:10.046Z,1010.2
2022-10-26T01:49:10.051Z,1010.3
2022-10-26T01:50:10.057Z,1010.2
2022-10-26T01:51:10.073Z,1010.2
2022-10-26T01:52:10.080Z,1010.2
2022-10-26T01:53:10.092Z,1010.2
2022-10-26T01:54:10.102Z,1010.2
2022-10-26T01:55:10.119Z,1010.2
2022-10-26T01:56:10.120Z,1010.2
2022-10-26T01:57:10.132Z,1010.2
2022-10-26T01:58:10.146Z,1010.2
2022-10-26T01:59:10.153Z,1010.2
2022-10-26T02:00:10.158Z,1010.2
2022-10-26T02:01:10.318Z,1010.2
2022-10-26T02:02:10.175Z,1010.2
2022-10-26T02:03:10.193Z,1010.3
2022-10-26T02:04:10.200Z,1010.2
2022-10-26T02:05:10.218Z,1010.2
2022-10-26T02:06:10.222Z,1010.1
2022-10-26T02:07:10.239Z,1010.2
2022-10-26T02:08:10.245Z,1010.2
2022-10-26T02:09:10.257Z,1010.1
2022-10-26T02:10:10.273Z,1010.2
2022-10-26T02:11:10.297Z,1010.1
2022-10-26T02:12:10.302Z,1010.2
2022-10-26T02:13:10.303Z,1010.2
2022-10-26T02:14:10.424Z,1010.2
2022-10-26T02:15:10.330Z,1010.2
2022-10-26T02:16:10.328Z,1010.2
2022-10-26T02:17:10.331Z,1010.2
2022-10-26T02:18:10.341Z,1010.2
2022-10-26T02:19:10.352Z,1010.2
2022-10-26T02:20:10.360Z,1010.2
2022-10-26T02:21:10.367Z,1010.2
2022-10-26T02:22:10.393Z,1010.1
2022-10-26T02:23:10.397Z,1010.2
2022-10-26T02:24:10.414Z,1010.2
2022-10-26T02:25:10.407Z,1010.2
2022-10-26T02:26:10.416Z,1010.1
2022-10-26T02:27:10.428Z,1010.2
2022-10-26T02:28:10.436Z,1010.2
2022-10-26T02:29:10.449Z,1010.2
2022-10-26T02:30:10.453Z,1010.3
2022-10-26T02:31:10.469Z,1010.2
2022-10-26T02:32:10.483Z,1010.2
2022-10-26T02:33:10.506Z,1010.2
2022-10-26T02:34:10.502Z,1010.1
2022-10-26T02:35:10.521Z,1010.1
2022-10-26T02:36:10.526Z,1010.1
2022-10-26T02:37:10.541Z,1010.1
2022-10-26T02:38:10.551Z,1010.1
2022-10-26T02:39:10.567Z,1010.1
2022-10-26T02:40:10.571Z,1010.1
2022-10-26T02:41:10.590Z,1010.1
2022-10-26T02:42:10.594Z,1010.1
2022-10-26T02:43:10.608Z,1010.1
2022-10-26T02:44:10.619Z,1010.2
2022-10-26T02:45:10.642Z,1010.1
2022-10-26T02:46:10.648Z,1010.1
2022-10-26T02:47:10.651Z,1010.1
2022-10-26T02:48:10.654Z,1010.1
2022-10-26T02:49:10.674Z,1010.1
2022-10-26T02:50:10.687Z,1010.1
2022-10-26T02:51:10.699Z,1010.1
2022-10-26T02:52:10.716Z,1010.1
2022-10-26T02:53:10.726Z,1010.1
2022-10-26T02:54:10.723Z,1010.1
2022-10-26T02:55:10.743Z,1010.1
2022-10-26T02:56:10.756Z,1010.2
2022-10-26T02:57:10.763Z,1010.1
2022-10-26T02:58:10.762Z,1010.1
2022-10-26T02:59:10.774Z,1010.0
2022-10-26T03:01:10.952Z,1010.0
2022-10-26T03:02:10.811Z,1010.1
2022-10-26T03:03:10.825Z,1010.0
2022-10-26T03:04:11.084Z,1010.0
2022-10-26T03:05:10.846Z,1010.0
2022-10-26T03:06:10.849Z,1010.0
2022-10-26T03:07:10.868Z,1010.0
2022-10-26T03:08:10.876Z,1010.2
2022-10-26T03:09:10.888Z,1010.1
2022-10-26T03:10:10.894Z,1010.0
2022-10-26T03:11:10.904Z,1010.1
2022-10-26T03:12:10.912Z,1010.1
2022-10-26T03:13:10.916Z,1010.1
2022-10-26T03:14:10.926Z,1010.1
2022-10-26T03:15:10.943Z,1010.1
2022-10-26T03:16:10.946Z,1010.1
2022-10-26T03:17:10.965Z,1010.0
2022-10-26T03:18:10.975Z,1010.0
2022-10-26T03:19:10.991Z,1010.0
2022-10-26T03:20:11.014Z,1010.0
2022-10-26T03:21:11.006Z,1010.1
2022-10-26T03:22:11.020Z,1010.1
2022-10-26T03:23:11.136Z,1010.1
2022-10-26T03:24:11.041Z,1010.1
2022-10-26T03:25:11.419Z,1010.1
2022-10-26T03:26:11.080Z,1010.1
2022-10-26T03:27:11.075Z,1010.1
2022-10-26T03:28:11.084Z,1010.1
2022-10-26T03:29:11.096Z,1010.1
2022-10-26T03:30:11.105Z,1010.1
2022-10-26T03:31:11.120Z,1010.2
2022-10-26T03:32:11.131Z,1010.2
2022-10-26T03:33:11.144Z,1010.1
2022-10-26T03:34:11.159Z,1010.0
2022-10-26T03:35:11.162Z,1010.0
2022-10-26T03:36:11.169Z,1010.1
2022-10-26T03:37:11.178Z,1010.0
2022-10-26T03:38:16.168Z,1010.0
2022-10-26T03:39:11.201Z,1010.1
2022-10-26T03:40:11.221Z,1010.0
2022-10-26T03:41:11.234Z,1010.0
2022-10-26T03:42:11.242Z,1010.0
2022-10-26T03:43:11.264Z,1010.0
2022-10-26T03:44:11.284Z,1010.1
2022-10-26T03:45:11.292Z,1010.1
2022-10-26T03:46:11.298Z,1010.0
2022-10-26T03:47:11.314Z,1010.0
2022-10-26T03:48:11.322Z,1010.0
2022-10-26T03:49:11.340Z,1010.1
2022-10-26T03:50:11.354Z,1010.1
2022-10-26T03:51:11.371Z,1010.0
2022-10-26T03:52:11.379Z,1010.1
2022-10-26T03:53:11.392Z,1010.0
2022-10-26T03:54:11.431Z,1010.0
2022-10-26T03:55:11.420Z,1010.0
2022-10-26T03:56:11.431Z,1010.0
2022-10-26T03:57:11.449Z,1010.1
2022-10-26T03:58:11.642Z,1010.1
2022-10-26T03:59:11.461Z,1010.1
2022-10-26T04:00:11.468Z,1010.0
2022-10-26T04:01:11.584Z,1010.0
2022-10-26T04:02:11.512Z,1010.1
2022-10-26T04:03:11.504Z,1010.1
2022-10-26T04:04:11.637Z,1010.1
2022-10-26T04:05:11.568Z,1010.0
2022-10-26T04:06:11.558Z,1010.1
2022-10-26T04:07:11.571Z,1010.2
2022-10-26T04:08:11.586Z,1010.2
2022-10-26T04:09:11.596Z,1010.0
2022-10-26T04:10:11.658Z,1010.1
2022-10-26T04:11:11.629Z,1010.1
2022-10-26T04:12:11.642Z,1010.1
2022-10-26T04:13:11.653Z,1010.1
2022-10-26T04:14:11.659Z,1010.2
2022-10-26T04:15:11.677Z,1010.1
2022-10-26T04:16:11.683Z,1010.1
2022-10-26T04:17:11.691Z,1010.1
2022-10-26T04:18:11.692Z,1010.1
2022-10-26T04:19:11.702Z,1010.1
2022-10-26T04:20:11.706Z,1010.1
2022-10-26T04:21:11.726Z,1010.1
2022-10-26T04:22:11.733Z,1010.1
2022-10-26T04:23:11.807Z,1010.0
2022-10-26T04:24:11.771Z,1010.1
2022-10-26T04:25:11.776Z,1010.1
2022-10-26T04:26:11.788Z,1010.0
2022-10-26T04:27:11.801Z,1010.1
2022-10-26T04:28:11.837Z,1010.0
2022-10-26T04:29:11.817Z,1010.0
2022-10-26T04:30:11.831Z,1010.1
2022-10-26T04:31:11.847Z,1010.2
2022-10-26T04:32:11.857Z,1010.1
2022-10-26T04:33:11.865Z,1010.1
2022-10-26T04:34:13.126Z,1010.2
2022-10-26T04:35:15.498Z,1010.1
2022-10-26T04:36:11.891Z,1010.0
2022-10-26T04:37:11.898Z,1010.1
2022-10-26T04:38:11.908Z,1010.0
2022-10-26T04:39:11.921Z,1010.0
2022-10-26T04:40:11.958Z,1010.0
2022-10-26T04:41:11.960Z,1010.0
2022-10-26T04:42:11.967Z,1009.9
2022-10-26T04:43:11.988Z,1009.9
2022-10-26T04:44:11.999Z,1009.9
2022-10-26T04:45:12.016Z,1010.0
2022-10-26T04:46:16.693Z,1009.9
2022-10-26T04:47:12.030Z,1009.9
2022-10-26T04:48:12.154Z,1010.0
2022-10-26T04:49:12.060Z,1009.9
2022-10-26T04:50:12.070Z,1009.9
2022-10-26T04:51:12.081Z,1009.8
2022-10-26T04:52:12.093Z,1009.9
2022-10-26T04:53:12.098Z,1009.9
2022-10-26T04:54:12.119Z,1009.9
2022-10-26T04:55:12.137Z,1009.9
2022-10-26T04:56:12.156Z,1009.9
2022-10-26T04:57:12.163Z,1009.9
2022-10-26T04:58:12.166Z,1009.9
2022-10-26T04:59:12.188Z,1009.9
2022-10-26T05:00:12.191Z,1009.9
2022-10-26T05:01:12.519Z,1010.0
2022-10-26T05:02:12.530Z,1010.0
2022-10-26T05:03:12.240Z,1010.0
2022-10-26T05:04:12.274Z,1010.0
2022-10-26T05:05:15.325Z,1009.9
2022-10-26T05:06:12.267Z,1010.0
2022-10-26T05:07:12.273Z,1010.0
2022-10-26T05:08:12.287Z,1009.9
2022-10-26T05:09:12.299Z,1009.9
2022-10-26T05:10:12.314Z,1009.8
2022-10-26T05:11:12.330Z,1009.9
2022-10-26T05:12:12.349Z,1009.9
2022-10-26T05:13:12.355Z,1009.8
2022-10-26T05:14:12.362Z,1009.9
2022-10-26T05:15:12.376Z,1009.8
2022-10-26T05:16:12.389Z,1009.9
2022-10-26T05:17:12.396Z,1009.8
2022-10-26T05:18:12.412Z,1009.8
2022-10-26T05:19:12.415Z,1009.9
2022-10-26T05:20:12.430Z,1009.9
2022-10-26T05:21:12.445Z,1009.9
2022-10-26T05:22:12.456Z,1009.9
2022-10-26T05:23:12.470Z,1009.8
2022-10-26T05:24:12.768Z,1009.9
2022-10-26T05:25:12.491Z,1009.9
2022-10-26T05:26:12.512Z,1009.9
2022-10-26T05:27:12.525Z,1009.9
2022-10-26T05:28:12.543Z,1009.8
2022-10-26T05:29:12.548Z,1009.8
2022-10-26T05:30:12.572Z,1009.9
2022-10-26T05:31:12.571Z,1009.8
2022-10-26T05:32:12.582Z,1009.8
2022-10-26T05:33:12.589Z,1009.8
2022-10-26T05:34:12.593Z,1009.8
2022-10-26T05:35:12.612Z,1009.9
2022-10-26T05:36:12.626Z,1009.8
2022-10-26T05:37:12.637Z,1009.8
2022-10-26T05:38:12.794Z,1009.8
2022-10-26T05:39:12.679Z,1009.8
2022-10-26T05:40:12.678Z,1009.8
2022-10-26T05:41:12.703Z,1009.9
2022-10-26T05:42:12.705Z,1009.8
2022-10-26T05:43:12.715Z,1009.8
2022-10-26T05:44:12.717Z,1009.9
2022-10-26T05:45:12.745Z,1009.8
2022-10-26T05:46:12.745Z,1009.8
2022-10-26T05:47:12.767Z,1009.8
2022-10-26T05:48:12.768Z,1009.9
2022-10-26T05:49:12.776Z,1009.9
2022-10-26T05:50:12.782Z,1009.8
2022-10-26T05:51:12.797Z,1009.9
2022-10-26T05:52:12.807Z,1009.9
2022-10-26T05:53:12.833Z,1010.0
2022-10-26T05:54:14.222Z,1009.9
2022-10-26T05:55:12.845Z,1009.9
2022-10-26T05:56:12.863Z,1009.9
2022-10-26T05:57:12.867Z,1010.0
2022-10-26T05:58:12.877Z,1010.0
2022-10-26T05:59:12.898Z,1010.0
2022-10-26T06:00:12.908Z,1010.0
2022-10-26T06:01:13.242Z,1009.9
2022-10-26T06:02:13.205Z,1010.1
2022-10-26T06:03:12.968Z,1010.0
2022-10-26T06:04:12.971Z,1010.1
2022-10-26T06:05:12.981Z,1010.0
2022-10-26T06:06:12.992Z,1010.1
2022-10-26T06:07:12.988Z,1010.1
2022-10-26T06:08:13.005Z,1010.1
2022-10-26T06:09:13.021Z,1010.0
2022-10-26T06:10:13.031Z,1010.1
2022-10-26T06:11:13.038Z,1010.1
2022-10-26T06:12:16.951Z,1010.1
2022-10-26T06:13:13.067Z,1010.0
2022-10-26T06:14:13.086Z,1010.1
2022-10-26T06:15:13.102Z,1010.1
2022-10-26T06:16:13.104Z,1010.1
2022-10-26T06:17:13.119Z,1010.1
2022-10-26T06:18:13.132Z,1010.2
2022-10-26T06:19:13.141Z,1010.1
2022-10-26T06:21:13.152Z,1010.2
2022-10-26T06:22:13.158Z,1010.1
2022-10-26T06:23:13.346Z,1010.1
2022-10-26T06:24:13.193Z,1010.1
2022-10-26T06:25:13.200Z,1010.1
2022-10-26T06:26:13.220Z,1010.1
2022-10-26T06:27:19.547Z,1010.1
2022-10-26T06:28:13.245Z,1010.1
2022-10-26T06:29:13.257Z,1010.0
2022-10-26T06:30:13.273Z,1010.0
2022-10-26T06:31:13.286Z,1010.0
2022-10-26T06:32:13.303Z,1010.1
2022-10-26T06:33:30.974Z,1010.0
2022-10-26T06:34:13.329Z,1010.1
2022-10-26T06:35:13.339Z,1010.1
2022-10-26T06:36:13.359Z,1010.1
2022-10-26T06:37:13.395Z,1010.1
2022-10-26T06:38:13.401Z,1010.1
2022-10-26T06:39:13.397Z,1010.1
2022-10-26T06:40:13.406Z,1010.2
2022-10-26T06:41:13.419Z,1010.2
2022-10-26T06:42:13.435Z,1010.1
2022-10-26T06:43:13.443Z,1010.2
2022-10-26T06:44:13.463Z,1010.1
2022-10-26T06:46:13.491Z,1010.2
2022-10-26T06:47:13.508Z,1010.2
2022-10-26T06:48:13.526Z,1010.2
2022-10-26T06:49:13.547Z,1010.2
2022-10-26T06:50:13.563Z,1010.1
2022-10-26T06:51:13.572Z,1010.2
2022-10-26T06:52:13.577Z,1010.3
2022-10-26T06:53:13.581Z,1010.3
2022-10-26T06:54:13.611Z,1010.3
2022-10-26T07:11:14.041Z,1010.4
2022-10-26T07:12:13.855Z,1010.3
2022-10-26T07:13:13.921Z,1010.4
2022-10-26T07:14:13.898Z,1010.4
2022-10-26T07:15:13.921Z,1010.3
2022-10-26T07:16:13.937Z,1010.3
2022-10-26T07:17:13.959Z,1010.3
2022-10-26T07:18:13.957Z,1010.3
2022-10-26T07:19:13.967Z,1010.4
2022-10-26T07:20:13.994Z,1010.3
2022-10-26T07:21:14.002Z,1010.3
2022-10-26T07:22:13.998Z,1010.3
2022-10-26T07:23:14.007Z,1010.4
2022-10-26T07:24:14.031Z,1010.4
2022-10-26T07:25:14.031Z,1010.4
2022-10-26T07:26:14.043Z,1010.4
2022-10-26T07:27:14.052Z,1010.4
2022-10-26T07:28:14.075Z,1010.4
2022-10-26T07:29:14.080Z,1010.4
2022-10-26T07:30:14.099Z,1010.4
2022-10-26T07:31:14.121Z,1010.5
2022-10-26T07:32:14.130Z,1010.5
2022-10-26T07:33:14.278Z,1010.4
2022-10-26T07:34:14.163Z,1010.5
2022-10-26T07:35:14.180Z,1010.5
2022-10-26T07:36:14.214Z,1010.5
2022-10-26T07:37:14.191Z,1010.4
2022-10-26T07:38:14.211Z,1010.5
2022-10-26T07:39:14.227Z,1010.5
2022-10-26T07:40:14.347Z,1010.5
2022-10-26T07:41:14.269Z,1010.5
2022-10-26T07:42:14.295Z,1010.5
2022-10-26T07:43:14.293Z,1010.5
2022-10-26T07:44:14.312Z,1010.5
2022-10-26T07:45:14.320Z,1010.5
2022-10-26T07:46:14.325Z,1010.5
2022-10-26T07:47:14.334Z,1010.6
2022-10-26T07:48:14.356Z,1010.5
2022-10-26T07:49:19.355Z,1010.6
2022-10-26T07:50:14.379Z,1010.6
2022-10-26T07:51:14.387Z,1010.5
2022-10-26T07:52:14.405Z,1010.5
2022-10-26T07:53:14.411Z,1010.5
2022-10-26T07:54:14.428Z,1010.5
2022-10-26T07:55:14.474Z,1010.5
2022-10-26T07:56:14.471Z,1010.5
2022-10-26T07:57:14.542Z,1010.5
2022-10-26T07:58:14.505Z,1010.6
2022-10-26T07:59:14.510Z,1010.5
2022-10-26T08:00:14.518Z,1010.7
2022-10-26T08:01:14.944Z,1010.6
2022-10-26T08:02:14.543Z,1010.5
2022-10-26T08:03:14.560Z,1010.5
2022-10-26T08:04:14.610Z,1010.6
2022-10-26T08:05:14.665Z,1010.5
2022-10-26T08:06:14.639Z,1010.5
2022-10-26T08:07:14.652Z,1010.5
2022-10-26T08:08:14.674Z,1010.5
2022-10-26T08:09:14.708Z,1010.5
2022-10-26T08:10:14.710Z,1010.5
2022-10-26T08:11:14.688Z,1010.4
2022-10-26T08:12:14.691Z,1010.5
2022-10-26T08:13:14.703Z,1010.4
2022-10-26T08:14:14.701Z,1010.5
2022-10-26T08:15:14.713Z,1010.5
2022-10-26T08:16:14.718Z,1010.6
2022-10-26T08:17:14.726Z,1010.6
2022-10-26T08:18:14.732Z,1010.5
2022-10-26T08:19:14.735Z,1010.6
2022-10-26T08:20:14.747Z,1010.6
2022-10-26T08:21:35.713Z,1010.6
2022-10-26T08:23:14.757Z,1010.6
2022-10-26T08:24:14.764Z,1010.6
2022-10-26T08:25:21.222Z,1010.6
2022-10-26T08:26:14.779Z,1010.6
2022-10-26T08:27:14.787Z,1010.7
2022-10-26T08:28:14.793Z,1010.6
2022-10-26T08:29:15.158Z,1010.7
2022-10-26T08:30:14.802Z,1010.7
2022-10-26T08:31:14.819Z,1010.6
2022-10-26T08:32:14.819Z,1010.5
2022-10-26T08:33:14.827Z,1010.6
2022-10-26T08:34:14.829Z,1010.7
2022-10-26T08:35:14.842Z,1010.6
2022-10-26T08:36:14.844Z,1010.6
2022-10-26T08:37:14.856Z,1010.6
2022-10-26T08:38:14.875Z,1010.6
2022-10-26T08:39:14.875Z,1010.5
2022-10-26T08:40:14.880Z,1010.5
2022-10-26T08:41:14.897Z,1010.6
2022-10-26T08:42:14.908Z,1010.6
2022-10-26T08:43:14.915Z,1010.6
2022-10-26T08:44:14.922Z,1010.6
2022-10-26T08:45:14.931Z,1010.6
2022-10-26T08:46:14.949Z,1010.5
2022-10-26T08:47:15.119Z,1010.5
2022-10-26T08:48:14.950Z,1010.6
2022-10-26T08:49:14.963Z,1010.5
2022-10-26T08:50:15.003Z,1010.5
2022-10-26T08:51:14.972Z,1010.5
2022-10-26T08:52:14.978Z,1010.5
2022-10-26T08:53:14.985Z,1010.5
2022-10-26T08:54:14.987Z,1010.5
2022-10-26T08:55:15.003Z,1010.5
2022-10-26T08:56:15.003Z,1010.5
2022-10-26T08:57:15.013Z,1010.5
2022-10-26T08:58:15.012Z,1010.4
2022-10-26T08:59:15.024Z,1010.5
2022-10-26T09:00:15.047Z,1010.5
2022-10-26T09:01:15.319Z,1010.5
2022-10-26T09:02:15.044Z,1010.5
2022-10-26T09:03:15.056Z,1010.4
2022-10-26T09:04:15.055Z,1010.4
2022-10-26T09:05:15.062Z,1010.5
2022-10-26T09:06:15.068Z,1010.5
2022-10-26T09:07:15.069Z,1010.5
2022-10-26T09:08:15.077Z,1010.4
2022-10-26T09:09:15.361Z,1010.4
2022-10-26T09:10:15.190Z,1010.4
2022-10-26T09:11:15.101Z,1010.4
2022-10-26T09:12:15.104Z,1010.4
2022-10-26T09:13:15.109Z,1010.4
2022-10-26T09:14:15.127Z,1010.4
2022-10-26T09:15:15.135Z,1010.4
2022-10-26T09:16:15.137Z,1010.4
2022-10-26T09:17:15.148Z,1010.4
2022-10-26T09:18:15.157Z,1010.3
2022-10-26T09:19:15.163Z,1010.3
2022-10-26T09:20:15.175Z,1010.3
2022-10-26T09:21:15.185Z,1010.3
2022-10-26T09:22:15.187Z,1010.3
2022-10-26T09:23:15.196Z,1010.2
2022-10-26T09:24:15.198Z,1010.2
2022-10-26T09:25:15.210Z,1010.3
2022-10-26T09:26:15.214Z,1010.3
2022-10-26T09:27:15.231Z,1010.3
2022-10-26T09:28:15.229Z,1010.3
2022-10-26T09:29:15.243Z,1010.4
2022-10-26T09:30:15.247Z,1010.4
2022-10-26T09:31:15.266Z,1010.3
2022-10-26T09:32:15.267Z,1010.3
2022-10-26T09:33:15.275Z,1010.3
2022-10-26T09:34:15.275Z,1010.3
2022-10-26T09:35:15.447Z,1010.3
2022-10-26T09:36:17.244Z,1010.2
2022-10-26T09:37:15.304Z,1010.2
2022-10-26T09:38:15.311Z,1010.4
2022-10-26T09:39:15.319Z,1010.3
2022-10-26T09:40:15.331Z,1010.3
2022-10-26T09:41:15.334Z,1010.3
2022-10-26T09:42:15.345Z,1010.3
2022-10-26T09:43:15.356Z,1010.3
2022-10-26T09:44:15.391Z,1010.3
2022-10-26T09:45:15.374Z,1010.3
2022-10-26T09:46:15.378Z,1010.3
2022-10-26T09:47:15.393Z,1010.3
2022-10-26T09:48:15.397Z,1010.4
2022-10-26T09:49:15.407Z,1010.3
2022-10-26T09:50:15.409Z,1010.3
2022-10-26T09:51:15.420Z,1010.4
2022-10-26T09:52:15.428Z,1010.3
2022-10-26T09:53:15.438Z,1010.3
2022-10-26T09:54:15.435Z,1010.4
2022-10-26T09:55:15.451Z,1010.3
2022-10-26T09:56:15.454Z,1010.4
2022-10-26T09:57:15.461Z,1010.3
2022-10-26T09:58:15.471Z,1010.4
2022-10-26T09:59:15.472Z,1010.4
2022-10-26T10:00:15.477Z,1010.3
2022-10-26T10:01:15.603Z,1010.3
2022-10-26T10:02:15.587Z,1010.4
2022-10-26T10:03:15.566Z,1010.3
2022-10-26T10:04:15.502Z,1010.3
2022-10-26T10:05:39.009Z,1010.2
2022-10-26T10:06:15.520Z,1010.2
2022-10-26T10:07:15.531Z,1010.3
2022-10-26T10:08:15.538Z,1010.3
2022-10-26T10:09:15.547Z,1010.2
2022-10-26T10:10:15.554Z,1010.3
2022-10-26T10:11:15.567Z,1010.3
2022-10-26T10:12:15.565Z,1010.3
2022-10-26T10:13:15.584Z,1010.4
2022-10-26T10:14:15.675Z,1010.3
2022-10-26T10:15:15.593Z,1010.4
2022-10-26T10:16:15.599Z,1010.3
2022-10-26T10:18:15.615Z,1010.3
2022-10-26T10:19:15.617Z,1010.3
2022-10-26T10:20:15.629Z,1010.3
2022-10-26T10:21:15.640Z,1010.3
2022-10-26T10:22:15.641Z,1010.2
2022-10-26T10:23:15.647Z,1010.3
2022-10-26T10:24:15.654Z,1010.3
2022-10-26T10:25:15.665Z,1010.4
2022-10-26T10:26:15.672Z,1010.3
2022-10-26T10:27:15.716Z,1010.3
2022-10-26T10:28:15.782Z,1010.3
2022-10-26T10:29:15.695Z,1010.4
2022-10-26T10:30:15.803Z,1010.3
2022-10-26T10:32:15.729Z,1010.3
2022-10-26T10:33:15.722Z,1010.3
2022-10-26T10:34:15.731Z,1010.2
2022-10-26T10:35:15.785Z,1010.3
2022-10-26T10:36:15.748Z,1010.2
2022-10-26T10:37:15.749Z,1010.3
2022-10-26T10:38:15.762Z,1010.2
2022-10-26T10:39:15.814Z,1010.3
2022-10-26T10:40:19.081Z,1010.2
2022-10-26T10:41:15.773Z,1010.3
2022-10-26T10:42:15.780Z,1010.3
2022-10-26T10:43:15.789Z,1010.3
2022-10-26T10:44:15.798Z,1010.3
2022-10-26T10:45:15.802Z,1010.3
2022-10-26T10:46:15.803Z,1010.3
2022-10-26T10:47:15.810Z,1010.3
2022-10-26T10:48:15.826Z,1010.3
2022-10-26T10:49:15.826Z,1010.3
2022-10-26T10:50:15.917Z,1010.3
2022-10-26T10:51:15.837Z,1010.4
2022-10-26T10:52:15.840Z,1010.4
2022-10-26T10:53:15.855Z,1010.4
2022-10-26T10:54:15.855Z,1010.4
2022-10-26T10:55:15.869Z,1010.5
2022-10-26T10:56:15.871Z,1010.4
2022-10-26T10:57:15.881Z,1010.4
2022-10-26T10:58:15.888Z,1010.3
2022-10-26T10:59:15.980Z,1010.4
2022-10-26T11:00:15.995Z,1010.4
2022-10-26T11:01:16.216Z,1010.3
2022-10-26T11:02:16.208Z,1010.4
2022-10-26T11:03:15.923Z,1010.4
2022-10-26T11:04:16.006Z,1010.3
2022-10-26T11:05:15.947Z,1010.3
2022-10-26T11:06:15.948Z,1010.3
2022-10-26T11:07:15.963Z,1010.4
2022-10-26T11:08:15.976Z,1010.4
2022-10-26T11:09:15.975Z,1010.4
2022-10-26T11:10:15.982Z,1010.3
2022-10-26T11:11:15.993Z,1010.3
2022-10-26T11:12:16.005Z,1010.3
2022-10-26T11:13:16.010Z,1010.4
2022-10-26T11:14:16.025Z,1010.4
2022-10-26T11:15:16.025Z,1010.2
2022-10-26T11:16:16.030Z,1010.3
2022-10-26T11:17:16.041Z,1010.2
2022-10-26T11:18:16.043Z,1010.3
2022-10-26T11:19:16.059Z,1010.2
2022-10-26T11:20:16.071Z,1010.2
2022-10-26T11:21:16.082Z,1010.2
2022-10-26T11:22:16.082Z,1010.3
2022-10-26T11:23:16.089Z,1010.3
2022-10-26T11:24:16.098Z,1010.3
2022-10-26T11:25:16.111Z,1010.3
2022-10-26T11:26:16.109Z,1010.2
2022-10-26T11:27:16.116Z,1010.3
2022-10-26T11:28:16.122Z,1010.3
2022-10-26T11:30:16.146Z,1010.3
2022-10-26T11:31:16.152Z,1010.3
2022-10-26T11:32:16.159Z,1010.4
2022-10-26T11:33:16.164Z,1010.3
2022-10-26T11:34:16.173Z,1010.4
2022-10-26T11:35:16.178Z,1010.3
2022-10-26T11:36:21.790Z,1010.4
2022-10-26T11:37:16.194Z,1010.3
2022-10-26T11:38:28.287Z,1010.4
2022-10-26T11:39:16.226Z,1010.3
2022-10-26T11:40:16.220Z,1010.3
2022-10-26T11:41:16.226Z,1010.3
2022-10-26T11:42:16.230Z,1010.3
2022-10-26T11:43:16.240Z,1010.3
2022-10-26T11:44:16.250Z,1010.3
2022-10-26T11:45:16.256Z,1010.3
2022-10-26T11:46:19.431Z,1010.3
2022-10-26T11:47:16.272Z,1010.3
2022-10-26T11:48:16.324Z,1010.3
2022-10-26T11:49:16.282Z,1010.3
2022-10-26T11:50:17.925Z,1010.2
2022-10-26T11:51:16.299Z,1010.3
2022-10-26T11:52:16.304Z,1010.3
2022-10-26T11:53:16.320Z,1010.2
2022-10-26T11:54:16.420Z,1010.2
2022-10-26T11:55:16.333Z,1010.2
2022-10-26T11:56:16.339Z,1010.3
2022-10-26T11:57:16.338Z,1010.3
2022-10-26T11:58:16.345Z,1010.2
2022-10-26T11:59:16.354Z,1010.3
2022-10-26T12:00:16.361Z,1010.3
2022-10-26T12:01:16.465Z,1010.3
2022-10-26T12:02:16.373Z,1010.2
2022-10-26T12:03:16.381Z,1010.3
2022-10-26T12:04:16.386Z,1010.3
2022-10-26T12:05:16.400Z,1010.3
2022-10-26T12:06:16.396Z,1010.4
2022-10-26T12:07:16.403Z,1010.4
2022-10-26T12:08:16.409Z,1010.4
2022-10-26T12:09:16.414Z,1010.4
2022-10-26T12:10:23.007Z,1010.4
2022-10-26T12:11:16.431Z,1010.4
2022-10-26T12:12:16.444Z,1010.4
2022-10-26T12:13:16.441Z,1010.4
2022-10-26T12:14:16.446Z,1010.4
2022-10-26T12:15:16.454Z,1010.3
2022-10-26T12:16:16.457Z,1010.4
2022-10-26T12:17:16.478Z,1010.5
2022-10-26T12:18:37.022Z,1010.4
2022-10-26T12:19:16.572Z,1010.5
2022-10-26T12:20:16.495Z,1010.4
2022-10-26T12:21:16.489Z,1010.4
2022-10-26T12:22:16.492Z,1010.4
2022-10-26T12:23:33.760Z,1010.4
2022-10-26T12:24:16.503Z,1010.5
2022-10-26T12:25:16.516Z,1010.4
2022-10-26T12:26:16.531Z,1010.5
2022-10-26T12:27:16.526Z,1010.5
2022-10-26T12:28:16.532Z,1010.6
2022-10-26T12:29:16.558Z,1010.5
2022-10-26T12:30:16.554Z,1010.5
2022-10-26T12:31:16.564Z,1010.5
2022-10-26T12:32:16.561Z,1010.5
2022-10-26T12:33:16.571Z,1010.5
2022-10-26T12:34:16.585Z,1010.5
2022-10-26T12:35:16.581Z,1010.5
2022-10-26T12:36:16.602Z,1010.5
2022-10-26T12:37:16.587Z,1010.5
2022-10-26T12:38:16.599Z,1010.6
2022-10-26T12:39:16.606Z,1010.5
2022-10-26T12:40:16.644Z,1010.5
2022-10-26T12:41:16.619Z,1010.5
2022-10-26T12:42:16.630Z,1010.5
2022-10-26T12:43:16.638Z,1010.6
2022-10-26T12:44:16.647Z,1010.6
2022-10-26T12:45:16.657Z,1010.5
2022-10-26T12:46:16.660Z,1010.5
2022-10-26T12:47:16.662Z,1010.6
2022-10-26T12:48:38.367Z,1010.6
2022-10-26T12:49:16.685Z,1010.6
2022-10-26T12:50:16.689Z,1010.5
2022-10-26T12:51:16.700Z,1010.5
2022-10-26T12:52:16.705Z,1010.5
2022-10-26T12:53:24.429Z,1010.5
2022-10-26T12:54:16.718Z,1010.6
2022-10-26T12:55:16.726Z,1010.5
2022-10-26T12:56:16.734Z,1010.5
2022-10-26T12:57:16.734Z,1010.5
2022-10-26T12:58:16.751Z,1010.4
2022-10-26T12:59:16.761Z,1010.5
2022-10-26T13:00:16.768Z,1010.5
2022-10-26T13:01:16.831Z,1010.5
2022-10-26T13:02:16.780Z,1010.6
2022-10-26T13:03:16.786Z,1010.6
2022-10-26T13:04:16.793Z,1010.6
2022-10-26T13:05:16.803Z,1010.6
2022-10-26T13:06:16.810Z,1010.6
2022-10-26T13:07:16.902Z,1010.6
2022-10-26T13:08:16.834Z,1010.6